createdAt,value
2018-11-12T00:00:43.544Z,16.85
2018-11-12T00:06:12.832Z,18.25
2018-11-12T00:11:42.196Z,18.17
2018-11-12T00:17:11.499Z,17.67
2018-11-12T00:22:40.744Z,18.98
2018-11-12T00:28:10.059Z,18.15
2018-11-12T00:33:39.417Z,16.35
2018-11-12T00:39:11.212Z,16.62
2018-11-12T00:44:40.432Z,14.35
2018-11-12T00:50:11.132Z,16.93
2018-11-12T00:55:40.508Z,16.00
2018-11-12T01:01:09.829Z,15.63
2018-11-12T01:06:39.044Z,15.90
2018-11-12T01:12:09.095Z,16.02
2018-11-12T01:17:39.063Z,17.95
2018-11-12T01:23:08.525Z,18.20
2018-11-12T01:28:37.794Z,16.25
2018-11-12T01:34:07.225Z,17.60
2018-11-12T01:39:36.480Z,17.25
2018-11-12T01:45:11.225Z,16.60
2018-11-12T01:50:40.509Z,15.98
2018-11-12T01:56:09.816Z,15.58
2018-11-12T02:01:39.207Z,14.55
2018-11-12T02:07:08.568Z,14.85
2018-11-12T02:12:38.240Z,15.95
2018-11-12T02:18:07.604Z,15.03
2018-11-12T02:23:37.128Z,14.15
2018-11-12T02:29:06.862Z,13.72
2018-11-12T02:34:36.101Z,14.10
2018-11-12T02:40:06.465Z,13.20
2018-11-12T02:45:35.733Z,12.63
2018-11-12T02:51:06.695Z,12.58
2018-11-12T02:56:36.068Z,13.45
2018-11-12T03:02:05.556Z,11.80
2018-11-12T03:07:34.969Z,13.48
2018-11-12T03:13:04.186Z,12.68
2018-11-12T03:18:33.499Z,12.35
2018-11-12T03:24:02.780Z,14.80
2018-11-12T03:29:32.096Z,13.15
2018-11-12T03:35:01.319Z,13.60
2018-11-12T03:40:30.879Z,12.07
2018-11-12T03:46:00.170Z,11.08
2018-11-12T03:51:29.422Z,11.97
2018-11-12T03:56:58.676Z,11.85
2018-11-12T04:02:27.917Z,11.08
2018-11-12T04:07:57.355Z,11.45
2018-11-12T04:13:26.601Z,10.20
2018-11-12T04:18:55.896Z,10.53
2018-11-12T04:24:25.245Z,9.73
2018-11-12T04:29:54.522Z,9.85
2018-11-12T04:35:23.843Z,10.25
2018-11-12T04:40:53.104Z,9.95
2018-11-12T04:46:22.433Z,10.08
2018-11-12T04:51:51.693Z,9.55
2018-11-12T04:57:21.009Z,9.13
2018-11-12T05:02:50.492Z,10.40
2018-11-12T05:08:19.793Z,8.95
2018-11-12T05:13:49.040Z,9.58
2018-11-12T05:19:18.251Z,8.65
2018-11-12T05:24:47.477Z,8.50
2018-11-12T05:30:20.068Z,8.55
2018-11-12T05:35:49.292Z,6.75
2018-11-12T05:41:18.524Z,7.40
2018-11-12T05:46:48.798Z,6.72
2018-11-12T05:52:18.088Z,7.03
2018-11-12T05:57:48.597Z,6.50
2018-11-12T06:03:18.885Z,6.00
2018-11-12T06:08:48.172Z,6.62
2018-11-12T06:14:17.588Z,6.25
2018-11-12T06:19:46.814Z,6.50
2018-11-12T06:25:17.634Z,5.20
2018-11-12T06:30:46.936Z,6.03
2018-11-12T06:36:16.174Z,5.92
2018-11-12T06:41:45.424Z,5.58
2018-11-12T06:47:14.685Z,5.87
2018-11-12T06:52:43.976Z,4.90
2018-11-12T06:58:13.184Z,4.08
2018-11-12T07:03:42.400Z,3.42
2018-11-12T07:09:13.121Z,4.15
2018-11-12T07:14:42.353Z,3.52
2018-11-12T07:20:14.673Z,3.72
2018-11-12T07:25:43.890Z,3.00
2018-11-12T07:31:13.187Z,3.17
2018-11-12T07:36:42.333Z,3.50
2018-11-12T07:42:11.697Z,3.70
2018-11-12T07:47:41.824Z,3.60
2018-11-12T07:53:11.104Z,4.72
2018-11-12T07:58:40.420Z,3.40
2018-11-12T08:04:09.732Z,3.25
2018-11-12T08:09:39.019Z,2.52
2018-11-12T08:15:09.664Z,3.08
2018-11-12T08:20:38.908Z,2.60
2018-11-12T08:26:08.162Z,3.10
2018-11-12T08:31:37.396Z,2.90
2018-11-12T08:37:07.245Z,3.72
2018-11-12T08:42:36.523Z,3.95
2018-11-12T08:48:06.028Z,3.75
2018-11-12T08:53:35.284Z,4.00
2018-11-12T08:59:04.577Z,3.22
2018-11-12T09:04:33.792Z,2.98
2018-11-12T09:10:03.063Z,3.65
2018-11-12T09:15:32.449Z,3.20
2018-11-12T09:21:01.722Z,3.85
2018-11-12T09:26:31.120Z,4.35
2018-11-12T09:32:00.395Z,3.58
2018-11-12T09:37:29.735Z,3.87
2018-11-12T09:42:58.978Z,3.47
2018-11-12T09:48:29.114Z,3.40
2018-11-12T09:53:58.390Z,3.30
2018-11-12T09:59:27.659Z,3.10
2018-11-12T10:04:58.195Z,3.52
2018-11-12T10:10:41.622Z,2.72
2018-11-12T10:16:11.496Z,3.25
2018-11-12T10:21:37.549Z,2.90
2018-11-12T10:27:07.155Z,2.85
2018-11-12T10:32:36.368Z,2.70
2018-11-12T10:38:06.020Z,3.27
2018-11-12T10:43:35.316Z,2.98
2018-11-12T10:49:04.503Z,3.62
2018-11-12T10:54:33.825Z,2.92
2018-11-12T11:00:03.116Z,2.65
2018-11-12T11:05:32.608Z,3.40
2018-11-12T11:11:02.068Z,2.62
2018-11-12T11:16:31.354Z,2.83
2018-11-12T11:22:00.632Z,2.55
2018-11-12T11:27:29.936Z,2.70
2018-11-12T11:32:59.164Z,2.67
2018-11-12T11:38:28.421Z,2.47
2018-11-12T11:43:57.708Z,2.80
2018-11-12T11:49:27.923Z,2.10
2018-11-12T11:54:57.156Z,2.20
2018-11-12T12:00:27.880Z,1.80
2018-11-12T12:05:57.265Z,1.75
2018-11-12T12:11:27.108Z,1.82
2018-11-12T12:16:56.529Z,2.00
2018-11-12T12:22:25.769Z,2.50
2018-11-12T12:27:55.068Z,2.35
2018-11-12T12:33:24.285Z,2.08
2018-11-12T12:38:53.735Z,1.62
2018-11-12T12:44:23.159Z,2.15
2018-11-12T12:49:52.453Z,3.60
2018-11-12T12:55:21.908Z,3.17
2018-11-12T13:00:51.133Z,3.50
2018-11-12T13:06:20.511Z,4.10
2018-11-12T13:11:49.762Z,2.90
2018-11-12T13:17:19.096Z,2.40
2018-11-12T13:22:48.900Z,1.85
2018-11-12T13:28:19.231Z,2.22
2018-11-12T13:33:48.676Z,2.52
2018-11-12T13:39:18.047Z,1.40
2018-11-12T13:44:47.336Z,1.67
2018-11-12T13:50:18.151Z,1.85
2018-11-12T13:55:47.529Z,1.98
2018-11-12T14:01:16.832Z,7.30
2018-11-12T14:06:46.205Z,8.53
2018-11-12T14:12:15.549Z,8.45
2018-11-12T14:17:46.251Z,9.00
2018-11-12T14:23:15.666Z,9.98
2018-11-12T14:28:45.114Z,9.28
2018-11-12T14:34:14.317Z,9.48
2018-11-12T14:39:43.647Z,8.73
2018-11-12T14:45:15.247Z,9.43
2018-11-12T14:50:44.493Z,11.20
2018-11-12T14:56:13.752Z,11.65
2018-11-12T15:01:43.039Z,12.55
2018-11-12T15:07:12.412Z,12.75
2018-11-12T15:12:42.189Z,12.65
2018-11-12T15:18:11.510Z,14.18
2018-11-12T15:23:40.844Z,13.80
2018-11-12T15:29:10.129Z,14.60
2018-11-12T15:34:39.581Z,15.58
2018-11-12T15:40:10.021Z,16.37
2018-11-12T15:45:39.422Z,17.55
2018-11-12T15:51:08.832Z,15.95
2018-11-12T15:56:38.215Z,15.72
2018-11-12T16:02:07.560Z,17.32
2018-11-12T16:07:36.914Z,17.45
2018-11-12T16:13:06.316Z,17.50
2018-11-12T16:18:35.642Z,15.50
2018-11-12T16:24:05.331Z,17.42
2018-11-12T16:29:34.574Z,19.48
2018-11-12T16:35:04.317Z,19.75
2018-11-12T16:40:33.749Z,19.05
2018-11-12T16:46:03.134Z,21.35
2018-11-12T16:51:32.503Z,20.57
2018-11-12T16:57:01.992Z,20.32
2018-11-12T17:02:31.269Z,18.62
2018-11-12T17:08:00.601Z,19.73
2018-11-12T17:13:29.893Z,23.52
2018-11-12T17:18:59.316Z,22.00
2018-11-12T17:24:28.701Z,19.77
2018-11-12T17:29:58.255Z,20.50
2018-11-12T17:35:27.636Z,20.05
2018-11-12T17:40:57.397Z,19.82
2018-11-12T17:46:26.710Z,20.50
2018-11-12T17:51:56.065Z,20.90
2018-11-12T17:57:25.428Z,21.85
2018-11-12T18:02:54.804Z,23.83
2018-11-12T18:08:24.098Z,21.97
2018-11-12T18:13:53.526Z,23.10
2018-11-12T18:19:22.767Z,22.27
2018-11-12T18:24:52.138Z,23.77
2018-11-12T18:30:23.099Z,26.10
2018-11-12T18:35:52.360Z,30.62
2018-11-12T18:41:21.758Z,25.17
2018-11-12T18:46:51.164Z,27.27
2018-11-12T18:52:20.533Z,25.55
2018-11-12T18:57:51.186Z,25.95
2018-11-12T19:03:21.047Z,33.38
2018-11-12T19:08:50.420Z,34.58
2018-11-12T19:14:19.725Z,30.23
2018-11-12T19:19:49.031Z,24.92
2018-11-12T19:25:18.368Z,24.65
2018-11-12T19:30:47.708Z,22.05
2018-11-12T19:36:16.981Z,21.30
2018-11-12T19:41:49.239Z,22.82
2018-11-12T19:47:18.690Z,25.65
2018-11-12T19:52:49.103Z,26.62
2018-11-12T19:58:18.440Z,28.10
2018-11-12T20:03:47.809Z,28.05
2018-11-12T20:09:17.116Z,25.75
2018-11-12T20:14:46.564Z,35.20
2018-11-12T20:20:18.793Z,26.45
2018-11-12T20:25:48.403Z,26.97
2018-11-12T20:31:18.758Z,23.92
2018-11-12T20:36:48.117Z,22.05
2018-11-12T20:42:17.602Z,21.45
2018-11-12T20:47:49.383Z,19.70
2018-11-12T20:53:19.606Z,19.95
2018-11-12T20:58:49.011Z,20.72
2018-11-12T21:04:18.396Z,19.27
2018-11-12T21:09:47.752Z,16.07
2018-11-12T21:15:19.362Z,17.62
2018-11-12T21:20:48.828Z,16.12
2018-11-12T21:26:18.179Z,15.08
2018-11-12T21:31:49.017Z,15.65
2018-11-12T21:37:18.439Z,15.15
2018-11-12T21:42:48.010Z,13.60
2018-11-12T21:48:17.540Z,13.90
2018-11-12T21:53:47.000Z,13.58
2018-11-12T21:59:16.382Z,13.45
2018-11-12T22:04:46.004Z,12.80
2018-11-12T22:10:16.040Z,10.95
2018-11-12T22:15:45.372Z,8.65
2018-11-12T22:21:14.703Z,9.85
2018-11-12T22:26:44.046Z,10.95
2018-11-12T22:32:13.328Z,10.13
2018-11-12T22:37:43.262Z,11.15
2018-11-12T22:43:12.496Z,10.53
2018-11-12T22:48:41.700Z,11.00
2018-11-12T22:54:11.020Z,9.90
2018-11-12T22:59:40.233Z,10.93
2018-11-12T23:05:09.418Z,11.40
2018-11-12T23:10:39.748Z,9.48
2018-11-12T23:16:09.043Z,9.33
2018-11-12T23:21:38.886Z,9.00
2018-11-12T23:27:08.344Z,7.12
2018-11-12T23:32:37.649Z,7.10
2018-11-12T23:38:06.896Z,5.87
2018-11-12T23:43:36.300Z,6.90
2018-11-12T23:49:05.796Z,5.97
2018-11-12T23:54:35.037Z,6.65
